Time;durP1;ratioP1;P1;durP2;ratioP2;P2;SDS_P1;SDS_P2;PMS_P1;PMS_P2;Temp;Humidity;BMP_temperature;BMP_pressure;BME280_temperature;BME280_humidity;BME280_pressure;Samples;Min_cycle;Max_cycle;Signal;HPM_P1;HPM_P2
2022/05/21 00:02:07;;;;;;;9.30;4.20;;;;;;;19.20;63.10;97947.30;106430;1277;24274;-72
2022/05/21 00:04:36;;;;;;;7.20;4.00;;;;;;;19.27;62.85;97945.73;106238;1277;24312;-72
2022/05/21 00:07:03;;;;;;;;;;;;;;;19.34;62.76;97945.30;106378;1277;137397;-72
2022/05/21 00:09:29;;;;;;;6.70;4.10;;;;;;;19.41;62.44;97943.23;106317;1277;23299;-73
2022/05/21 00:12:10;;;;;;;7.50;3.30;;;;;;;19.48;62.17;97946.09;106329;1277;137376;-73
2022/05/21 00:14:37;;;;;;;5.10;2.80;;;;;;;19.57;61.82;97943.41;106057;1277;22585;-73
2022/05/21 00:17:03;;;;;;;5.70;2.30;;;;;;;19.67;61.32;97937.37;105932;1277;22551;-73
2022/05/21 00:19:29;;;;;;;6.60;2.30;;;;;;;19.78;60.73;97943.62;106468;1276;137367;-72
2022/05/21 00:21:56;;;;;;;12.10;1.90;;;;;;;19.90;60.27;97944.94;105827;1277;24268;-72
2022/05/21 00:24:22;;;;;;;11.60;1.60;;;;;;;20.01;59.79;97937.89;105796;1277;138130;-72
2022/05/21 00:26:48;;;;;;;9.00;2.60;;;;;;;20.11;59.51;97933.70;106196;1277;26887;-72
2022/05/21 00:29:14;;;;;;;8.30;1.80;;;;;;;20.18;59.41;97935.41;106377;1277;22565;-73
2022/05/21 00:31:41;;;;;;;4.90;1.90;;;;;;;20.23;59.95;97942.19;106178;1274;137974;-73
2022/05/21 00:34:07;;;;;;;7.40;1.40;;;;;;;20.24;60.36;97937.80;106236;1276;22569;-72
2022/05/21 00:36:33;;;;;;;8.90;1.30;;;;;;;20.21;60.72;97935.30;106490;1277;137501;-74
2022/05/21 00:38:59;;;;;;;6.10;1.50;;;;;;;20.15;61.29;97916.60;106147;1277;24250;-72
2022/05/21 00:41:25;;;;;;;7.60;1.40;;;;;;;20.08;61.70;97913.65;106068;1276;137428;-72
2022/05/21 00:43:57;;;;;;;3.30;1.30;;;;;;;19.99;62.05;97890.74;106223;1277;22553;-72
2022/05/21 00:46:23;;;;;;;5.50;1.30;;;;;;;19.91;62.52;97873.83;106199;1277;22582;-71
2022/05/21 00:49:05;;;;;;;4.10;1.10;;;;;;;19.84;62.61;97859.88;106298;1277;138381;-72
2022/05/21 00:51:44;;;;;;;2.50;1.10;;;;;;;19.80;62.82;97882.61;106433;1277;25295;-72
2022/05/21 00:54:13;;;;;;;3.60;1.00;;;;;;;19.76;63.15;97906.09;106328;1277;137649;-72
2022/05/21 00:56:49;;;;;;;3.70;1.10;;;;;;;19.71;63.10;97890.45;106487;1277;22549;-72
2022/05/21 01:02:01;;;;;;;2.80;1.10;;;;;;;19.60;63.07;97897.65;106271;1276;138000;-72
2022/05/21 01:04:30;;;;;;;2.40;1.00;;;;;;;19.56;63.07;97886.67;106346;1276;22578;-72
2022/05/21 01:06:59;;;;;;;2.60;0.90;;;;;;;19.51;63.26;97882.05;105906;1276;137537;-71
2022/05/21 01:09:26;;;;;;;2.50;1.10;;;;;;;19.45;63.37;97872.60;106341;1277;22615;-72
2022/05/21 01:11:53;;;;;;;4.40;1.30;;;;;;;19.39;63.53;97876.63;105979;1277;138251;-72
2022/05/21 01:14:20;;;;;;;4.00;1.00;;;;;;;19.34;63.63;97876.70;106124;1277;22556;-72
2022/05/21 01:16:51;;;;;;;2.10;1.00;;;;;;;19.30;63.71;97875.10;106263;1277;25475;-72
2022/05/21 01:19:18;;;;;;;2.80;0.90;;;;;;;19.28;63.82;97872.02;106375;1277;137628;-72
2022/05/21 01:21:45;;;;;;;2.50;0.80;;;;;;;19.25;64.03;97881.74;106582;1277;25385;-72
2022/05/21 01:24:13;;;;;;;3.00;0.90;;;;;;;19.22;64.08;97883.33;106486;1277;137676;-71
2022/05/21 01:26:41;;;;;;;2.40;0.90;;;;;;;19.18;64.17;97883.05;106229;1277;25306;-72
2022/05/21 01:29:19;;;;;;;5.00;1.00;;;;;;;19.14;64.39;97884.96;106097;1277;25464;-71
2022/05/21 01:31:53;;;;;;;3.30;1.40;;;;;;;19.08;64.49;97885.45;106127;1277;137348;-72
2022/05/21 01:34:21;;;;;;;3.60;1.20;;;;;;;19.02;64.76;97888.76;106214;1277;22585;-71
2022/05/21 01:36:47;;;;;;;3.30;0.90;;;;;;;18.95;64.93;97882.96;106417;1277;137532;-72
2022/05/21 01:39:14;;;;;;;4.30;1.00;;;;;;;18.89;65.20;97887.64;106040;1277;22676;-72
2022/05/21 01:41:42;;;;;;;2.60;1.00;;;;;;;18.84;65.29;97892.66;106115;1277;137930;-72
2022/05/21 01:46:49;;;;;;;3.50;0.90;;;;;;;18.78;65.63;97889.79;106224;1277;22575;-72
2022/05/21 01:49:15;;;;;;;3.50;1.30;;;;;;;18.76;65.68;97887.38;106233;1277;137488;-72
2022/05/21 01:51:42;;;;;;;2.90;1.10;;;;;;;18.73;65.83;97887.22;106087;1277;22702;-72
2022/05/21 01:54:08;;;;;;;1.80;1.10;;;;;;;18.70;65.97;97883.60;105957;1277;137442;-72
2022/05/21 01:56:34;;;;;;;4.30;0.90;;;;;;;18.66;65.99;97876.73;106115;1277;25438;-72
2022/05/21 01:59:03;;;;;;;2.40;0.80;;;;;;;18.62;66.22;97875.90;106155;1277;25493;-73
2022/05/21 02:01:29;;;;;;;1.90;1.00;;;;;;;18.59;66.39;97881.42;106012;1277;137338;-73
2022/05/21 02:03:55;;;;;;;3.50;1.50;;;;;;;18.56;66.53;97877.48;106251;1277;24352;-71
2022/05/21 02:06:22;;;;;;;3.50;1.60;;;;;;;18.54;66.65;97882.04;106012;1277;138105;-71
2022/05/21 02:08:48;;;;;;;3.30;1.20;;;;;;;18.52;66.68;97886.10;106013;1277;24445;-71
2022/05/21 02:11:14;;;;;;;3.10;0.90;;;;;;;18.51;66.79;97892.27;105981;1277;22631;-71
2022/05/21 02:13:41;;;;;;;4.00;1.30;;;;;;;18.48;66.80;97889.36;105896;1277;137761;-72
2022/05/21 02:16:07;;;;;;;5.50;1.30;;;;;;;18.45;66.91;97894.14;106067;1277;26792;-73
2022/05/21 02:18:33;;;;;;;2.20;1.20;;;;;;;18.42;66.99;97887.27;106117;1277;137476;-72
2022/05/21 02:21:00;;;;;;;1.80;1.20;;;;;;;18.38;67.15;97888.11;106209;1277;22545;-72
2022/05/21 02:23:26;;;;;;;2.20;1.40;;;;;;;18.35;67.24;97889.08;106000;1277;25498;-72
2022/05/21 02:25:53;;;;;;;4.40;1.40;;;;;;;18.34;67.33;97886.39;106091;1277;137608;-72
2022/05/21 02:28:19;;;;;;;4.20;1.30;;;;;;;18.32;67.51;97885.02;106066;1277;23781;-72
2022/05/21 02:30:46;;;;;;;3.10;1.50;;;;;;;18.30;67.64;97885.55;105860;1277;137281;-72
2022/05/21 02:33:13;;;;;;;4.00;1.30;;;;;;;18.29;67.76;97877.60;106265;1277;22663;-72
2022/05/21 02:35:39;;;;;;;4.80;1.30;;;;;;;18.26;67.89;97869.42;106119;1277;137752;-73
2022/05/21 02:40:46;;;;;;;2.50;1.20;;;;;;;18.19;68.04;97855.20;106032;1277;22654;-73
2022/05/21 02:43:13;;;;;;;3.20;1.40;;;;;;;18.17;68.14;97863.41;106032;1277;138560;-72
2022/05/21 02:45:39;;;;;;;5.30;1.50;;;;;;;18.14;68.25;97861.20;106087;1277;22711;-72
2022/05/21 02:48:05;;;;;;;3.30;1.30;;;;;;;18.12;68.42;97855.13;105968;1277;137435;-72
2022/05/21 02:50:34;;;;;;;4.00;1.50;;;;;;;18.11;68.47;97850.90;106226;1276;25594;-72
2022/05/21 02:53:02;;;;;;;5.60;1.50;;;;;;;18.09;68.60;97851.50;106119;1277;25333;-72
2022/05/21 02:55:28;;;;;;;4.60;1.20;;;;;;;18.07;68.73;97853.38;105942;1277;137312;-73
2022/05/21 02:57:55;;;;;;;2.50;1.20;;;;;;;18.04;68.78;97859.23;106283;1277;22724;-73
2022/05/21 03:00:25;;;;;;;5.40;1.60;;;;;;;18.00;68.81;97857.44;106115;1277;137762;-73
2022/05/21 03:02:52;;;;;;;3.20;1.30;;;;;;;17.97;68.87;97855.08;106306;1276;22606;-72
2022/05/21 03:05:20;;;;;;;2.00;1.40;;;;;;;17.98;68.89;97861.02;105935;1277;24395;-72
2022/05/21 03:07:49;;;;;;;3.00;1.70;;;;;;;17.97;68.89;97864.11;106071;1277;137491;-72
2022/05/21 03:10:21;;;;;;;4.30;1.60;;;;;;;17.97;69.01;97861.59;105973;1277;22571;-73
2022/05/21 03:12:59;;;;;;;3.30;1.70;;;;;;;17.96;69.04;97865.63;106129;1276;137648;-72
2022/05/21 03:15:40;;;;;;;6.40;1.50;;;;;;;17.94;69.23;97868.20;106131;1277;22560;-71
2022/05/21 03:18:21;;;;;;;5.10;2.00;;;;;;;17.92;69.33;97875.07;106302;1276;137541;-73
2022/05/21 03:20:48;;;;;;;4.60;1.60;;;;;;;17.92;69.37;97871.38;106371;1277;24080;-72
2022/05/21 03:23:15;;;;;;;4.40;1.70;;;;;;;17.92;69.62;97873.04;106037;1277;22740;-73
2022/05/21 03:25:41;;;;;;;3.60;1.60;;;;;;;17.92;69.51;97872.14;106085;1277;137338;-73
2022/05/21 03:28:12;;;;;;;5.60;1.70;;;;;;;17.93;69.50;97863.60;106216;1276;22615;-73
2022/05/21 03:30:41;;;;;;;2.70;1.40;;;;;;;17.96;69.52;97863.10;106119;1276;137474;-73
2022/05/21 03:33:08;;;;;;;5.40;1.50;;;;;;;17.98;69.31;97868.17;106154;1277;23866;-73
2022/05/21 03:35:34;;;;;;;3.70;1.70;;;;;;;17.99;69.28;97865.95;106346;1277;137434;-73
2022/05/21 03:38:01;;;;;;;3.70;1.50;;;;;;;18.02;69.06;97868.13;105885;1277;24306;-72
2022/05/21 03:40:30;;;;;;;2.90;1.40;;;;;;;18.07;69.04;97865.88;106347;1277;22647;-72
2022/05/21 03:42:57;;;;;;;2.40;1.70;;;;;;;18.12;68.87;97854.58;105790;1277;137731;-72
2022/05/21 03:45:27;;;;;;;3.90;1.40;;;;;;;18.19;68.74;97859.35;105950;1277;25494;-72
2022/05/21 03:47:54;;;;;;;3.20;1.90;;;;;;;18.24;68.76;97864.80;106295;1276;137590;-72
2022/05/21 03:50:24;;;;;;;5.60;1.60;;;;;;;18.27;68.56;97879.94;106605;1277;23693;-72
2022/05/21 03:52:51;;;;;;;5.30;1.90;;;;;;;18.30;68.47;97881.08;106035;1278;22737;-72
2022/05/21 03:55:17;;;;;;;3.20;1.90;;;;;;;18.32;68.38;97884.95;106161;1276;137497;-72
2022/05/21 03:57:45;;;;;;;4.50;1.90;;;;;;;18.34;68.43;97883.96;106064;1277;25285;-73
2022/05/21 04:00:14;;;;;;;4.80;2.40;;;;;;;18.38;68.38;97883.39;105907;1277;138589;-73
2022/05/21 04:02:43;;;;;;;6.80;2.20;;;;;;;18.42;68.39;97884.91;106030;1277;31782;-72
2022/05/21 04:05:10;;;;;;;3.40;2.00;;;;;;;18.45;68.45;97889.52;106288;1277;24234;-72
2022/05/21 04:07:37;;;;;;;3.90;2.10;;;;;;;18.49;68.36;97890.44;106084;1276;138011;-72
2022/05/21 04:10:04;;;;;;;6.20;2.60;;;;;;;18.52;68.38;97890.52;106364;1277;24210;-72
2022/05/21 04:12:45;;;;;;;4.70;2.30;;;;;;;18.54;68.41;97887.50;106017;1277;138009;-72
2022/05/21 04:15:12;;;;;;;4.30;2.40;;;;;;;18.55;68.29;97883.54;105996;1277;24380;-71
2022/05/21 04:17:39;;;;;;;6.80;2.40;;;;;;;18.57;68.35;97881.35;106042;1277;137541;-72
2022/05/21 04:20:08;;;;;;;4.20;1.90;;;;;;;18.61;68.33;97884.14;106239;1277;25503;-71
2022/05/21 04:22:39;;;;;;;6.50;2.40;;;;;;;18.66;68.32;97881.09;106234;1276;24137;-71
2022/05/21 04:25:06;;;;;;;5.10;2.20;;;;;;;18.72;68.13;97882.66;106148;1277;137679;-73
2022/05/21 04:27:34;;;;;;;4.70;2.40;;;;;;;18.78;68.05;97885.71;106345;1277;24259;-72
2022/05/21 04:30:05;;;;;;;7.00;2.80;;;;;;;18.85;68.10;97884.70;106065;1277;137500;-72
2022/05/21 04:32:32;;;;;;;2.70;2.00;;;;;;;18.90;67.93;97889.48;106193;1277;24324;-72
2022/05/21 04:34:58;;;;;;;5.10;2.40;;;;;;;18.93;68.00;97892.10;106045;1277;22819;-72
2022/05/21 04:37:24;;;;;;;10.50;2.70;;;;;;;18.96;67.85;97894.07;106096;1277;137578;-72
2022/05/21 04:39:50;;;;;;;6.70;2.40;;;;;;;19.00;67.82;97892.50;106191;1277;22551;-72
2022/05/21 04:42:17;;;;;;;5.90;2.40;;;;;;;19.05;67.67;97893.42;106133;1277;137832;-71
2022/05/21 04:44:46;;;;;;;7.10;2.60;;;;;;;19.10;67.62;97899.14;106132;1277;22775;-72
2022/05/21 04:47:12;;;;;;;5.00;2.20;;;;;;;19.15;67.58;97905.14;106068;1277;25362;-73
2022/05/21 04:49:38;;;;;;;7.00;2.40;;;;;;;19.19;67.40;97904.45;106609;1277;137561;-73
2022/05/21 04:52:05;;;;;;;5.30;2.60;;;;;;;19.21;67.30;97910.95;105907;1277;22566;-72
2022/05/21 04:54:31;;;;;;;6.90;2.70;;;;;;;19.21;67.35;97912.61;106140;1277;137349;-73
2022/05/21 04:57:12;;;;;;;5.90;2.80;;;;;;;19.20;67.27;97911.64;106075;1277;22556;-72
2022/05/21 04:59:41;;;;;;;6.90;2.80;;;;;;;19.19;67.14;97913.71;106007;1277;137476;-72
2022/05/21 05:02:08;;;;;;;5.80;2.40;;;;;;;19.19;67.25;97922.86;106508;1276;25517;-73
2022/05/21 05:04:34;;;;;;;5.00;2.70;;;;;;;19.20;67.24;97926.92;106595;1277;22562;-73
2022/05/21 05:07:06;;;;;;;5.90;2.50;;;;;;;19.23;67.25;97925.31;106112;1277;137320;-72
2022/05/21 05:09:40;;;;;;;4.80;2.40;;;;;;;19.25;67.20;97926.96;106018;1277;22587;-72
2022/05/21 05:12:07;;;;;;;6.20;2.50;;;;;;;19.27;67.16;97929.47;106481;1277;137785;-72
2022/05/21 05:14:35;;;;;;;6.10;2.60;;;;;;;19.26;67.12;97925.45;106387;1277;24298;-72
2022/05/21 05:17:01;;;;;;;5.80;2.40;;;;;;;19.27;67.17;97925.77;106196;1276;22569;-72
2022/05/21 05:19:30;;;;;;;5.70;2.40;;;;;;;19.26;67.12;97929.70;106309;1277;137989;-72
2022/05/21 05:21:57;;;;;;;3.80;2.80;;;;;;;19.26;67.14;97929.16;106676;1277;22578;-72
2022/05/21 05:24:24;;;;;;;5.70;2.60;;;;;;;19.28;67.30;97931.76;106427;1277;138481;-73
2022/05/21 05:26:50;;;;;;;7.60;3.60;;;;;;;19.29;67.77;97931.27;106408;1277;22755;-73
2022/05/21 05:29:16;;;;;;;5.30;2.40;;;;;;;19.30;68.42;97934.01;106337;1277;22610;-73
2022/05/21 05:31:43;;;;;;;6.40;2.70;;;;;;;19.30;68.47;97934.90;106066;1277;137940;-73
2022/05/21 05:34:12;;;;;;;4.20;2.50;;;;;;;19.26;68.87;97934.95;106130;1277;639603;-72
2022/05/21 05:36:39;;;;;;;11.30;2.90;;;;;;;19.21;69.00;97939.83;106307;1277;138148;-71
2022/05/21 05:39:05;;;;;;;5.70;2.70;;;;;;;19.17;69.30;97944.83;106285;1277;23427;-71
2022/05/21 05:41:31;;;;;;;5.50;2.70;;;;;;;19.10;69.93;97943.41;106175;1277;24128;-73
2022/05/21 05:43:57;;;;;;;4.20;2.70;;;;;;;18.95;70.83;97943.83;106031;1276;137601;-73
2022/05/21 05:46:25;;;;;;;3.70;2.70;;;;;;;18.82;71.74;97943.98;106438;1277;23365;-74
2022/05/21 05:48:52;;;;;;;4.40;2.50;;;;;;;18.70;72.62;97944.55;106600;1277;138325;-75
2022/05/21 05:51:18;;;;;;;4.30;2.70;;;;;;;18.63;73.49;97954.59;106727;1277;24259;-75
2022/05/21 05:53:46;;;;;;;7.10;3.50;;;;;;;18.52;74.52;97952.27;106379;1277;137801;-74
2022/05/21 05:56:14;;;;;;;4.40;2.90;;;;;;;18.41;75.42;97954.12;106312;1277;23840;-74
2022/05/21 06:01:23;;;;;;;7.80;3.00;;;;;;;18.22;76.94;97955.04;106157;1277;138733;-74
2022/05/21 06:03:49;;;;;;;6.30;3.70;;;;;;;18.15;77.67;97960.50;106467;1276;26228;-73
2022/05/21 06:06:16;;;;;;;9.20;3.90;;;;;;;18.10;77.97;97962.70;106247;1277;137556;-73
2022/05/21 06:08:46;;;;;;;7.40;3.00;;;;;;;18.10;78.50;97963.88;106292;1277;22729;-73
2022/05/21 06:11:15;;;;;;;5.70;3.60;;;;;;;18.13;78.88;97964.02;106323;1277;22590;-72
2022/05/21 06:13:42;;;;;;;5.00;3.40;;;;;;;18.21;78.89;97967.34;106139;1277;139397;-72
2022/05/21 06:16:08;;;;;;;7.50;3.90;;;;;;;18.31;79.06;97960.67;106179;1277;25551;-71
2022/05/21 06:18:34;;;;;;;8.40;3.70;;;;;;;18.37;79.00;97966.38;105898;1275;137764;-72
2022/05/21 06:21:05;;;;;;;6.80;3.50;;;;;;;18.42;79.22;97975.70;106083;1277;22553;-71
2022/05/21 06:23:32;;;;;;;8.40;3.70;;;;;;;18.44;79.02;97973.35;106092;1277;24343;-72
2022/05/21 06:26:00;;;;;;;6.30;3.70;;;;;;;18.48;78.85;97968.59;106212;1277;137969;-72
2022/05/21 06:28:28;;;;;;;8.20;4.30;;;;;;;18.55;79.04;97964.26;106103;1277;23923;-73
2022/05/21 06:30:55;;;;;;;7.80;3.90;;;;;;;18.58;78.63;97971.06;106131;1277;138209;-72
2022/05/21 06:33:24;;;;;;;7.10;4.20;;;;;;;18.60;78.69;97972.19;106300;1276;22698;-72
2022/05/21 06:36:12;;;;;;;7.00;4.60;;;;;;;18.65;79.01;97978.21;106111;1277;138001;-73
2022/05/21 06:38:40;;;;;;;6.20;4.20;;;;;;;18.69;78.73;97974.09;106283;1277;22717;-72
2022/05/21 06:41:07;;;;;;;7.30;4.40;;;;;;;18.74;78.49;97980.85;106424;1277;22541;-72
2022/05/21 06:43:34;;;;;;;12.80;5.20;;;;;;;18.86;78.75;97983.29;105865;1277;138147;-72
2022/05/21 06:46:01;;;;;;;7.70;5.40;;;;;;;19.01;79.04;97984.04;106277;1277;22755;-72
2022/05/21 06:48:27;;;;;;;9.30;4.50;;;;;;;19.09;78.33;97982.90;105987;1277;137963;-72
2022/05/21 06:50:57;;;;;;;7.90;4.40;;;;;;;19.16;78.20;97979.58;106485;1277;22549;-73
2022/05/21 06:53:23;;;;;;;7.30;4.70;;;;;;;19.30;77.94;97980.79;105880;1277;22565;-73
2022/05/21 06:55:51;;;;;;;9.60;4.80;;;;;;;19.39;77.27;97974.05;105968;1276;137587;-73
2022/05/21 06:58:17;;;;;;;7.20;4.40;;;;;;;19.48;76.63;97978.36;106180;1277;24205;-74
2022/05/21 07:00:45;;;;;;;9.30;5.20;;;;;;;19.54;76.10;97988.55;106695;1277;138262;-71
2022/05/21 07:03:14;;;;;;;8.60;4.90;;;;;;;19.64;76.34;97991.69;106682;1277;24335;-72
2022/05/21 07:08:24;;;;;;;9.60;3.80;;;;;;;19.80;73.79;97993.80;106598;1277;22578;-74
2022/05/21 07:10:52;;;;;;;6.30;3.50;;;;;;;19.85;72.01;97994.50;106351;1277;22614;-73
2022/05/21 07:13:21;;;;;;;5.70;3.10;;;;;;;19.89;70.94;97993.52;107322;1277;137371;-72
2022/05/21 07:15:49;;;;;;;5.00;2.80;;;;;;;19.89;69.49;97996.92;107807;1277;23285;-73
2022/05/21 07:18:17;;;;;;;4.20;2.30;;;;;;;19.90;68.18;98000.66;106180;1277;137537;-72
2022/05/21 07:20:44;;;;;;;5.40;2.10;;;;;;;19.88;65.75;98006.41;106379;1277;22852;-73
2022/05/21 07:23:12;;;;;;;5.10;2.30;;;;;;;19.83;64.15;98013.05;106553;1277;23499;-73
2022/05/21 07:25:42;;;;;;;2.10;1.90;;;;;;;19.77;63.03;98021.10;106611;1277;137416;-72
2022/05/21 07:28:09;;;;;;;6.60;2.00;;;;;;;19.76;61.49;98025.40;106560;1277;22610;-72
2022/05/21 07:30:37;;;;;;;5.60;1.90;;;;;;;19.74;61.03;98020.46;106372;1275;137265;-72
2022/05/21 07:33:04;;;;;;;9.20;2.00;;;;;;;19.75;61.59;98021.72;106314;1277;22553;-72
2022/05/21 07:35:31;;;;;;;6.90;2.00;;;;;;;19.88;62.01;98024.09;106346;1277;22560;-72
2022/05/21 07:37:57;;;;;;;4.20;1.90;;;;;;;19.98;59.78;98021.13;106217;1277;137176;-72
2022/05/21 07:40:24;;;;;;;3.70;1.50;;;;;;;19.97;58.19;98025.24;106214;1277;25277;-72
2022/05/21 07:42:51;;;;;;;8.10;1.90;;;;;;;19.83;57.47;98036.27;106261;1277;137528;-72
2022/05/21 07:45:19;;;;;;;3.60;1.60;;;;;;;19.73;58.04;98037.45;106702;1277;24222;-72
2022/05/21 07:47:47;;;;;;;2.80;1.60;;;;;;;19.72;59.43;98038.20;105913;1277;137647;-73
2022/05/21 07:50:14;;;;;;;6.50;1.70;;;;;;;19.79;59.63;98042.80;106031;1277;22682;-73
2022/05/21 07:52:43;;;;;;;6.30;1.50;;;;;;;19.82;57.98;98050.95;106287;1277;22586;-73
2022/05/21 07:55:10;;;;;;;6.10;1.30;;;;;;;19.83;57.09;98044.18;106223;1275;137392;-73
2022/05/21 07:57:36;;;;;;;6.50;1.40;;;;;;;19.83;55.21;98042.96;106073;1277;22562;-73
2022/05/21 08:00:07;;;;;;;6.30;1.10;;;;;;;19.85;53.76;98049.50;105892;1277;137506;-73
2022/05/21 08:02:41;;;;;;;7.60;1.40;;;;;;;19.84;51.45;98043.10;106215;1277;22563;-73
2022/05/21 08:05:08;;;;;;;11.70;1.00;;;;;;;19.79;49.92;98055.29;105904;1277;22541;-73
2022/05/21 08:07:34;;;;;;;4.10;0.70;;;;;;;19.76;51.46;98045.13;105835;1276;137558;-73
2022/05/21 08:10:00;;;;;;;4.90;1.00;;;;;;;19.87;51.51;98041.42;105860;1277;22660;-73
2022/05/21 08:12:27;;;;;;;8.20;2.20;;;;;;;19.98;50.75;98043.34;105671;1278;137336;-73
2022/05/21 08:14:53;;;;;;;5.10;0.80;;;;;;;20.11;50.59;98045.22;105876;1277;25249;-73
2022/05/21 08:17:19;;;;;;;13.10;1.10;;;;;;;20.20;49.53;98046.73;105972;1277;24315;-73
2022/05/21 08:19:45;;;;;;;5.50;1.10;;;;;;;20.28;49.20;98046.63;106397;1277;137575;-73
2022/05/21 08:27:32;;;;;;;13.50;1.00;;;;;;;20.53;46.49;98052.17;106190;1276;23364;-73
2022/05/21 08:29:58;;;;;;;3.00;0.70;;;;;;;20.54;46.04;98057.52;105779;1276;138015;-73
2022/05/21 08:32:25;;;;;;;9.30;0.80;;;;;;;20.56;46.41;98057.40;105978;1276;22598;-73
2022/05/21 08:34:53;;;;;;;6.40;0.90;;;;;;;20.58;45.35;98070.63;106106;1276;26848;-72
2022/05/21 08:37:20;;;;;;;17.30;0.90;;;;;;;20.52;44.84;98061.55;105999;1277;137764;-74
2022/05/21 08:40:02;;;;;;;5.70;0.70;;;;;;;20.45;44.84;98070.48;106182;1277;22703;-73
2022/05/21 08:42:56;;;;;;;13.70;1.30;;;;;;;20.47;45.19;98058.19;106204;1277;137442;-73
2022/05/21 08:45:39;;;;;;;4.40;0.50;;;;;;;20.56;45.75;98054.80;106066;1277;25265;-72
2022/05/21 08:48:07;;;;;;;6.30;0.90;;;;;;;20.64;44.95;98050.79;105723;1279;137738;-74
2022/05/21 08:50:38;;;;;;;5.10;0.70;;;;;;;20.66;44.12;98060.02;106355;1279;23933;-72
2022/05/21 08:53:16;;;;;;;4.80;0.60;;;;;;;20.69;44.32;98058.84;105990;1276;22608;-73
2022/05/21 08:55:49;;;;;;;6.40;0.90;;;;;;;20.80;43.69;98062.31;106145;1276;137336;-73
2022/05/21 08:58:50;;;;;;;5.70;0.50;;;;;;;20.94;42.39;98069.77;106436;1277;22572;-73
2022/05/21 09:01:20;;;;;;;5.70;0.70;;;;;;;21.04;42.20;98079.88;105912;1277;137331;-73
2022/05/21 09:03:50;;;;;;;7.60;0.70;;;;;;;21.15;41.93;98085.57;106362;1276;22553;-72
2022/05/21 09:06:28;;;;;;;18.70;1.00;;;;;;;21.26;42.08;98091.05;106471;1277;137705;-73
2022/05/21 09:09:03;;;;;;;6.50;0.60;;;;;;;21.38;41.19;98085.75;106301;1277;30735;-72
2022/05/21 09:11:38;;;;;;;2.60;0.40;;;;;;;21.51;41.08;98087.38;106459;1277;24291;-73
2022/05/21 09:14:29;;;;;;;7.80;0.50;;;;;;;21.57;41.03;98097.38;105917;1277;137678;-72
2022/05/21 09:16:55;;;;;;;2.80;0.60;;;;;;;21.64;40.40;98097.77;106157;1277;22537;-72
2022/05/21 09:19:37;;;;;;;4.70;0.50;;;;;;;21.63;39.68;98104.84;105741;1277;137597;-72
2022/05/21 09:22:07;;;;;;;11.30;0.80;;;;;;;21.56;39.86;98113.27;106383;1277;25573;-72
2022/05/21 09:24:43;;;;;;;5.40;0.60;;;;;;;21.56;39.60;98114.27;105875;1277;137607;-72
2022/05/21 09:27:26;;;;;;;4.30;0.50;;;;;;;21.49;39.34;98113.94;105970;1277;24209;-72
2022/05/21 09:30:11;;;;;;;5.50;0.50;;;;;;;21.49;39.59;98110.39;106586;1277;138095;-73
2022/05/21 09:32:39;;;;;;;4.00;0.50;;;;;;;21.43;38.98;98118.60;106345;1277;26091;-72
2022/05/21 09:35:11;;;;;;;7.10;0.80;;;;;;;21.48;39.18;98121.34;106275;1277;22569;-72
2022/05/21 09:37:39;;;;;;;5.90;0.70;;;;;;;21.56;38.97;98115.08;106001;1277;137945;-72
2022/05/21 09:40:38;;;;;;;3.70;0.40;;;;;;;21.66;38.56;98123.30;106702;1277;25245;-73
2022/05/21 09:46:26;;;;;;;4.00;0.70;;;;;;;21.90;38.17;98123.96;106321;1277;22554;-74
2022/05/21 09:49:11;;;;;;;12.40;1.30;;;;;;;21.88;38.11;98127.84;106367;1277;137273;-73
2022/05/21 09:51:40;;;;;;;3.50;0.50;;;;;;;21.66;38.24;98129.36;106189;1277;22560;-73
2022/05/21 09:54:23;;;;;;;3.80;0.70;;;;;;;21.43;38.12;98135.04;106093;1277;137664;-73
2022/05/21 09:56:53;;;;;;;6.40;0.70;;;;;;;21.26;38.82;98124.73;106228;1277;22559;-73
2022/05/21 09:59:23;;;;;;;2.00;0.40;;;;;;;21.34;38.62;98123.21;106250;1278;22567;-73
2022/05/21 10:01:57;;;;;;;5.70;0.80;;;;;;;21.60;38.78;98130.77;106130;1276;137373;-72
2022/05/21 10:04:48;;;;;;;5.50;0.40;;;;;;;21.77;38.35;98137.64;106245;1277;24212;-73
2022/05/21 10:12:47;;;;;;;3.00;0.30;;;;;;;21.39;39.24;98135.09;106273;1277;137379;-72
2022/05/21 10:15:19;;;;;;;2.20;0.40;;;;;;;21.12;39.44;98128.05;106141;1277;25518;-72
2022/05/21 10:17:53;;;;;;;2.50;0.50;;;;;;;21.01;39.50;98135.90;105847;1278;137514;-72
2022/05/21 10:20:27;;;;;;;4.20;0.60;;;;;;;20.99;39.30;98140.94;106376;1276;31642;-72
2022/05/21 10:23:04;;;;;;;7.60;0.90;;;;;;;21.19;39.35;98135.87;106071;1279;22738;-72
2022/05/21 10:26:00;;;;;;;5.10;1.30;;;;;;;21.53;38.48;98140.49;105916;1280;137698;-72
2022/05/21 10:28:48;;;;;;;3.10;0.60;;;;;;;21.86;37.59;98131.05;106150;1276;24235;-72
2022/05/21 10:31:39;;;;;;;3.30;0.70;;;;;;;22.09;37.52;98129.70;105917;1277;137361;-72
2022/05/21 10:34:28;;;;;;;4.30;0.80;;;;;;;22.30;37.55;98125.95;106680;1276;25267;-72
2022/05/21 10:37:15;;;;;;;2.30;0.40;;;;;;;22.60;37.33;98124.14;105806;1278;138144;-72
2022/05/21 10:39:55;;;;;;;6.70;0.50;;;;;;;22.84;36.91;98131.48;106240;1277;22562;-72
2022/05/21 10:43:00;;;;;;;3.00;0.60;;;;;;;23.15;36.87;98130.13;105913;1277;137608;-72
2022/05/21 10:45:34;;;;;;;4.00;0.40;;;;;;;23.45;35.38;98126.83;106091;1277;25248;-72
2022/05/21 10:48:28;;;;;;;7.00;0.70;;;;;;;23.58;34.90;98134.80;106636;1277;137432;-72
2022/05/21 10:51:08;;;;;;;2.00;1.10;;;;;;;23.61;34.82;98132.45;106605;1277;24506;-72
2022/05/21 10:53:47;;;;;;;2.90;0.50;;;;;;;23.47;33.87;98139.23;105802;1277;22665;-72
2022/05/21 10:56:29;;;;;;;1.50;0.30;;;;;;;23.14;34.03;98145.09;105911;1280;137180;-72
2022/05/21 10:59:11;;;;;;;2.30;0.50;;;;;;;22.88;34.67;98148.22;105943;1277;25417;-72
2022/05/21 11:01:51;;;;;;;4.50;0.50;;;;;;;22.76;34.99;98137.73;106126;1277;137384;-71
2022/05/21 11:04:32;;;;;;;5.20;0.80;;;;;;;22.95;35.28;98139.70;106327;1277;24344;-71
2022/05/21 11:07:18;;;;;;;3.00;0.50;;;;;;;23.19;34.00;98139.95;106138;1278;137353;-72
2022/05/21 11:09:55;;;;;;;4.50;0.60;;;;;;;23.38;34.61;98137.10;106119;1277;24260;-71
2022/05/21 11:12:30;;;;;;;3.00;0.60;;;;;;;23.59;34.06;98136.59;105970;1277;137544;-72
2022/05/21 11:15:03;;;;;;;4.10;0.70;;;;;;;23.59;33.72;98137.94;106213;1277;25251;-71
2022/05/21 11:17:40;;;;;;;3.60;0.60;;;;;;;23.33;33.31;98138.60;106127;1277;22649;-72
2022/05/21 11:20:18;;;;;;;3.80;0.70;;;;;;;23.12;33.96;98129.91;106246;1277;137155;-72
2022/05/21 11:22:54;;;;;;;4.30;0.40;;;;;;;22.83;33.82;98133.40;106163;1277;22547;-71
2022/05/21 11:25:27;;;;;;;3.80;0.60;;;;;;;22.50;34.41;98135.14;106014;1278;137513;-71
2022/05/21 11:27:53;;;;;;;4.50;0.60;;;;;;;22.52;35.79;98132.37;106325;1277;22545;-71
2022/05/21 11:30:22;;;;;;;4.20;0.50;;;;;;;22.65;34.39;98133.85;106048;1277;137815;-71
2022/05/21 11:38:43;;;;;;;2.10;0.40;;;;;;;22.95;34.55;98136.75;106448;1277;22693;-71
2022/05/21 11:46:53;;;;;;;4.30;0.80;;;;;;;23.25;34.60;98134.10;106136;1277;22596;-71
2022/05/21 11:49:31;;;;;;;4.60;0.50;;;;;;;23.50;33.93;98136.85;105820;1277;137564;-72
2022/05/21 11:52:00;;;;;;;7.10;0.60;;;;;;;23.60;32.96;98137.66;105858;1277;24287;-71
2022/05/21 11:54:47;;;;;;;2.70;0.50;;;;;;;23.80;33.34;98143.80;105948;1277;137645;-71
2022/05/21 11:57:32;;;;;;;4.50;1.30;;;;;;;23.85;33.23;98135.29;105973;1277;23376;-71
2022/05/21 12:00:02;;;;;;;9.00;1.00;;;;;;;24.02;33.91;98133.65;105923;1277;138402;-71
2022/05/21 12:03:00;;;;;;;4.20;0.60;;;;;;;23.98;33.49;98133.77;106132;1277;29896;-72
2022/05/21 12:05:26;;;;;;;;;;;;;;;23.85;33.79;98139.40;105961;1277;22677;-73
2022/05/21 12:08:12;;;;;;;1.30;0.50;;;;;;;23.34;33.55;98133.38;106041;1277;123882;-72
2022/05/21 12:11:04;;;;;;;4.10;0.50;;;;;;;22.95;33.83;98143.49;105833;1277;22573;-72
2022/05/21 12:13:33;;;;;;;4.60;0.60;;;;;;;22.76;34.58;98148.27;106121;1277;137895;-72
2022/05/21 12:16:17;;;;;;;2.50;0.50;;;;;;;22.90;34.56;98147.27;106101;1280;22590;-76
2022/05/21 12:18:44;;;;;;;3.90;0.50;;;;;;;22.97;34.02;98149.61;106095;1277;137559;-74